Terminal Aerodrome Forecast
Issued by NWS Upton, NY

Home | Current Version | Previous Version | Text Only | Print | Product List | Glossary On
Versions: 1 2 3 4 5 6 7 8 9 10 11 12 13 14 15 16 17 18 19 20 21 22 23 24 25 26 27 28 29 30 31 32 33
000
FTUS41 KOKX 051135
TAFJFK
TAF
KJFK 051135Z 0512/0618 24006KT P6SM FEW120 SCT250
     FM051500 31008KT P6SM BKN100
     FM051800 19012KT P6SM SCT050 SCT150 BKN250
     FM060100 VRB05KT P6SM SCT050 BKN100
     FM060800 04005KT 6SM -SHRA BKN040
     FM061200 04010KT 4SM -SHRA BR BKN020=

USA.gov is the U.S. government's official web portal to all federal, state and local government web resources and services.